sensor_id;sensor_type;location;lat;lon;timestamp;P1;durP1;ratioP1;P2;durP2;ratioP2
11422;SDS011;5768;51.476;7.210;2023-04-03T00:04:53;9.70;;;7.40;;
11422;SDS011;5768;51.476;7.210;2023-04-03T00:09:58;8.97;;;7.20;;
11422;SDS011;5768;51.476;7.210;2023-04-03T00:15:01;8.97;;;7.00;;
11422;SDS011;5768;51.476;7.210;2023-04-03T00:20:06;8.17;;;6.67;;
11422;SDS011;5768;51.476;7.210;2023-04-03T00:25:09;8.47;;;6.63;;
11422;SDS011;5768;51.476;7.210;2023-04-03T00:30:13;7.67;;;6.87;;
11422;SDS011;5768;51.476;7.210;2023-04-03T00:35:19;7.70;;;6.90;;
11422;SDS011;5768;51.476;7.210;2023-04-03T00:40:23;10.73;;;7.37;;
11422;SDS011;5768;51.476;7.210;2023-04-03T00:45:30;8.30;;;6.80;;
11422;SDS011;5768;51.476;7.210;2023-04-03T00:50:38;7.67;;;6.03;;
11422;SDS011;5768;51.476;7.210;2023-04-03T00:55:43;5.90;;;4.60;;
11422;SDS011;5768;51.476;7.210;2023-04-03T01:00:50;6.53;;;4.93;;
11422;SDS011;5768;51.476;7.210;2023-04-03T01:05:59;5.90;;;4.70;;
11422;SDS011;5768;51.476;7.210;2023-04-03T01:11:02;6.67;;;4.20;;
11422;SDS011;5768;51.476;7.210;2023-04-03T01:16:08;6.87;;;3.63;;
11422;SDS011;5768;51.476;7.210;2023-04-03T01:21:21;4.87;;;3.57;;
11422;SDS011;5768;51.476;7.210;2023-04-03T01:27:07;3.67;;;3.00;;
11422;SDS011;5768;51.476;7.210;2023-04-03T01:32:13;4.17;;;3.23;;
11422;SDS011;5768;51.476;7.210;2023-04-03T01:37:16;3.47;;;2.70;;
11422;SDS011;5768;51.476;7.210;2023-04-03T01:42:18;6.73;;;3.30;;
11422;SDS011;5768;51.476;7.210;2023-04-03T01:47:22;4.53;;;3.10;;
11422;SDS011;5768;51.476;7.210;2023-04-03T01:52:25;3.90;;;2.60;;
11422;SDS011;5768;51.476;7.210;2023-04-03T01:57:27;4.27;;;2.90;;
11422;SDS011;5768;51.476;7.210;2023-04-03T02:02:31;4.77;;;3.13;;
11422;SDS011;5768;51.476;7.210;2023-04-03T02:07:33;5.47;;;2.80;;
11422;SDS011;5768;51.476;7.210;2023-04-03T02:12:37;4.17;;;2.80;;
11422;SDS011;5768;51.476;7.210;2023-04-03T02:17:41;4.30;;;2.90;;
11422;SDS011;5768;51.476;7.210;2023-04-03T02:22:43;3.93;;;2.30;;
11422;SDS011;5768;51.476;7.210;2023-04-03T02:27:49;3.37;;;2.40;;
11422;SDS011;5768;51.476;7.210;2023-04-03T02:32:53;3.03;;;2.20;;
11422;SDS011;5768;51.476;7.210;2023-04-03T02:37:55;3.30;;;2.10;;
11422;SDS011;5768;51.476;7.210;2023-04-03T02:42:58;3.27;;;1.97;;
11422;SDS011;5768;51.476;7.210;2023-04-03T02:48:01;4.23;;;1.83;;
11422;SDS011;5768;51.476;7.210;2023-04-03T02:53:04;3.57;;;1.90;;
11422;SDS011;5768;51.476;7.210;2023-04-03T02:58:06;2.70;;;2.00;;
11422;SDS011;5768;51.476;7.210;2023-04-03T03:03:10;3.80;;;1.90;;
11422;SDS011;5768;51.476;7.210;2023-04-03T03:08:13;3.70;;;1.93;;
11422;SDS011;5768;51.476;7.210;2023-04-03T03:13:16;4.00;;;1.90;;
11422;SDS011;5768;51.476;7.210;2023-04-03T03:18:19;2.97;;;2.07;;
11422;SDS011;5768;51.476;7.210;2023-04-03T03:23:22;3.20;;;1.90;;
11422;SDS011;5768;51.476;7.210;2023-04-03T03:28:27;2.57;;;1.83;;
11422;SDS011;5768;51.476;7.210;2023-04-03T03:33:31;3.67;;;1.90;;
11422;SDS011;5768;51.476;7.210;2023-04-03T03:38:33;3.47;;;2.00;;
11422;SDS011;5768;51.476;7.210;2023-04-03T03:43:35;2.70;;;1.70;;
11422;SDS011;5768;51.476;7.210;2023-04-03T03:48:39;2.27;;;1.70;;
11422;SDS011;5768;51.476;7.210;2023-04-03T03:53:41;4.57;;;1.63;;
11422;SDS011;5768;51.476;7.210;2023-04-03T03:58:44;4.17;;;1.87;;
11422;SDS011;5768;51.476;7.210;2023-04-03T04:03:48;3.80;;;1.90;;
11422;SDS011;5768;51.476;7.210;2023-04-03T04:08:50;3.90;;;1.80;;
11422;SDS011;5768;51.476;7.210;2023-04-03T04:13:52;3.50;;;1.90;;
11422;SDS011;5768;51.476;7.210;2023-04-03T04:18:56;4.43;;;1.60;;
11422;SDS011;5768;51.476;7.210;2023-04-03T04:23:58;4.50;;;2.07;;
11422;SDS011;5768;51.476;7.210;2023-04-03T04:29:00;4.53;;;1.77;;
11422;SDS011;5768;51.476;7.210;2023-04-03T04:34:04;4.00;;;1.87;;
11422;SDS011;5768;51.476;7.210;2023-04-03T04:39:06;4.77;;;1.90;;
11422;SDS011;5768;51.476;7.210;2023-04-03T04:44:09;4.33;;;1.90;;
11422;SDS011;5768;51.476;7.210;2023-04-03T04:49:12;5.13;;;2.00;;
11422;SDS011;5768;51.476;7.210;2023-04-03T04:54:15;4.27;;;2.13;;
11422;SDS011;5768;51.476;7.210;2023-04-03T04:59:17;3.40;;;2.23;;
11422;SDS011;5768;51.476;7.210;2023-04-03T05:04:21;2.83;;;1.73;;
11422;SDS011;5768;51.476;7.210;2023-04-03T05:09:23;4.33;;;2.23;;
11422;SDS011;5768;51.476;7.210;2023-04-03T05:14:25;3.30;;;1.93;;
11422;SDS011;5768;51.476;7.210;2023-04-03T05:19:29;4.37;;;2.00;;
11422;SDS011;5768;51.476;7.210;2023-04-03T05:24:31;4.73;;;2.20;;
11422;SDS011;5768;51.476;7.210;2023-04-03T05:29:33;4.87;;;2.00;;
11422;SDS011;5768;51.476;7.210;2023-04-03T05:34:37;2.67;;;1.93;;
11422;SDS011;5768;51.476;7.210;2023-04-03T05:39:39;5.27;;;1.90;;
11422;SDS011;5768;51.476;7.210;2023-04-03T05:44:42;3.87;;;2.10;;
11422;SDS011;5768;51.476;7.210;2023-04-03T05:49:47;5.27;;;2.60;;
11422;SDS011;5768;51.476;7.210;2023-04-03T05:54:49;5.30;;;2.80;;
11422;SDS011;5768;51.476;7.210;2023-04-03T05:59:52;4.63;;;2.40;;
11422;SDS011;5768;51.476;7.210;2023-04-03T06:04:55;6.70;;;4.20;;
11422;SDS011;5768;51.476;7.210;2023-04-03T06:09:57;4.13;;;2.17;;
11422;SDS011;5768;51.476;7.210;2023-04-03T06:15:00;3.93;;;2.00;;
11422;SDS011;5768;51.476;7.210;2023-04-03T06:20:04;6.73;;;2.30;;
11422;SDS011;5768;51.476;7.210;2023-04-03T06:25:08;3.97;;;2.40;;
11422;SDS011;5768;51.476;7.210;2023-04-03T06:30:11;4.17;;;2.17;;
11422;SDS011;5768;51.476;7.210;2023-04-03T06:35:15;5.30;;;2.23;;
11422;SDS011;5768;51.476;7.210;2023-04-03T06:40:18;6.53;;;2.60;;
11422;SDS011;5768;51.476;7.210;2023-04-03T06:45:24;3.53;;;2.30;;
11422;SDS011;5768;51.476;7.210;2023-04-03T06:50:28;3.40;;;2.17;;
11422;SDS011;5768;51.476;7.210;2023-04-03T06:55:30;5.63;;;2.10;;
11422;SDS011;5768;51.476;7.210;2023-04-03T07:00:32;3.90;;;2.13;;
11422;SDS011;5768;51.476;7.210;2023-04-03T07:05:37;4.23;;;2.23;;
11422;SDS011;5768;51.476;7.210;2023-04-03T07:10:39;4.03;;;2.13;;
11422;SDS011;5768;51.476;7.210;2023-04-03T07:15:41;4.33;;;1.93;;
11422;SDS011;5768;51.476;7.210;2023-04-03T07:20:45;4.73;;;2.00;;
11422;SDS011;5768;51.476;7.210;2023-04-03T07:25:48;3.67;;;2.00;;
11422;SDS011;5768;51.476;7.210;2023-04-03T07:30:54;3.90;;;1.90;;
11422;SDS011;5768;51.476;7.210;2023-04-03T07:36:05;6.10;;;2.27;;
11422;SDS011;5768;51.476;7.210;2023-04-03T07:41:10;5.20;;;1.97;;
11422;SDS011;5768;51.476;7.210;2023-04-03T07:46:15;3.70;;;2.00;;
11422;SDS011;5768;51.476;7.210;2023-04-03T07:51:20;5.30;;;1.93;;
11422;SDS011;5768;51.476;7.210;2023-04-03T07:56:22;3.10;;;1.87;;
11422;SDS011;5768;51.476;7.210;2023-04-03T08:01:25;2.77;;;1.73;;
11422;SDS011;5768;51.476;7.210;2023-04-03T08:06:30;3.33;;;1.90;;
11422;SDS011;5768;51.476;7.210;2023-04-03T08:11:35;4.40;;;1.80;;
11422;SDS011;5768;51.476;7.210;2023-04-03T08:16:40;4.53;;;1.90;;
11422;SDS011;5768;51.476;7.210;2023-04-03T08:21:43;3.03;;;1.57;;
11422;SDS011;5768;51.476;7.210;2023-04-03T08:26:47;2.17;;;1.63;;
11422;SDS011;5768;51.476;7.210;2023-04-03T08:31:49;4.50;;;1.80;;
11422;SDS011;5768;51.476;7.210;2023-04-03T08:36:53;4.00;;;1.70;;
11422;SDS011;5768;51.476;7.210;2023-04-03T08:41:55;2.60;;;1.70;;
11422;SDS011;5768;51.476;7.210;2023-04-03T08:47:07;2.37;;;1.50;;
11422;SDS011;5768;51.476;7.210;2023-04-03T08:52:28;3.73;;;2.20;;
11422;SDS011;5768;51.476;7.210;2023-04-03T08:57:40;2.67;;;1.93;;
11422;SDS011;5768;51.476;7.210;2023-04-03T09:02:46;3.07;;;1.60;;
11422;SDS011;5768;51.476;7.210;2023-04-03T09:07:53;4.60;;;1.60;;
11422;SDS011;5768;51.476;7.210;2023-04-03T09:13:05;3.27;;;1.83;;
11422;SDS011;5768;51.476;7.210;2023-04-03T09:18:15;2.20;;;1.60;;
11422;SDS011;5768;51.476;7.210;2023-04-03T09:23:27;2.73;;;1.40;;
11422;SDS011;5768;51.476;7.210;2023-04-03T09:28:38;3.87;;;1.63;;
11422;SDS011;5768;51.476;7.210;2023-04-03T09:33:42;2.43;;;1.27;;
11422;SDS011;5768;51.476;7.210;2023-04-03T09:38:46;2.67;;;1.40;;
11422;SDS011;5768;51.476;7.210;2023-04-03T09:44:17;3.10;;;1.30;;
11422;SDS011;5768;51.476;7.210;2023-04-03T09:49:25;3.70;;;1.70;;
11422;SDS011;5768;51.476;7.210;2023-04-03T09:54:33;3.40;;;1.80;;
11422;SDS011;5768;51.476;7.210;2023-04-03T09:59:43;2.80;;;1.50;;
11422;SDS011;5768;51.476;7.210;2023-04-03T10:04:57;3.90;;;1.53;;
11422;SDS011;5768;51.476;7.210;2023-04-03T10:10:01;3.30;;;1.53;;
11422;SDS011;5768;51.476;7.210;2023-04-03T10:15:20;4.40;;;1.50;;
11422;SDS011;5768;51.476;7.210;2023-04-03T10:20:26;2.60;;;1.80;;
11422;SDS011;5768;51.476;7.210;2023-04-03T10:25:38;3.37;;;1.63;;
11422;SDS011;5768;51.476;7.210;2023-04-03T10:30:50;3.27;;;1.90;;
11422;SDS011;5768;51.476;7.210;2023-04-03T10:36:07;2.37;;;1.40;;
11422;SDS011;5768;51.476;7.210;2023-04-03T10:41:23;2.03;;;1.70;;
11422;SDS011;5768;51.476;7.210;2023-04-03T10:46:41;1.63;;;1.30;;
11422;SDS011;5768;51.476;7.210;2023-04-03T10:51:50;4.70;;;1.80;;
11422;SDS011;5768;51.476;7.210;2023-04-03T10:57:07;2.97;;;1.60;;
11422;SDS011;5768;51.476;7.210;2023-04-03T11:02:14;1.50;;;1.40;;
11422;SDS011;5768;51.476;7.210;2023-04-03T11:07:25;2.87;;;1.70;;
11422;SDS011;5768;51.476;7.210;2023-04-03T11:12:36;2.43;;;1.77;;
11422;SDS011;5768;51.476;7.210;2023-04-03T11:17:45;2.17;;;1.30;;
11422;SDS011;5768;51.476;7.210;2023-04-03T11:22:57;2.23;;;1.70;;
11422;SDS011;5768;51.476;7.210;2023-04-03T11:28:06;2.13;;;1.63;;
11422;SDS011;5768;51.476;7.210;2023-04-03T11:33:20;1.60;;;1.27;;
11422;SDS011;5768;51.476;7.210;2023-04-03T11:38:35;1.77;;;1.57;;
11422;SDS011;5768;51.476;7.210;2023-04-03T11:43:55;1.60;;;1.23;;
11422;SDS011;5768;51.476;7.210;2023-04-03T11:49:00;3.20;;;1.27;;
11422;SDS011;5768;51.476;7.210;2023-04-03T11:59:48;2.63;;;1.50;;
11422;SDS011;5768;51.476;7.210;2023-04-03T12:10:28;2.00;;;1.30;;
11422;SDS011;5768;51.476;7.210;2023-04-03T12:20:57;3.07;;;1.30;;
11422;SDS011;5768;51.476;7.210;2023-04-03T12:26:03;2.77;;;1.30;;
11422;SDS011;5768;51.476;7.210;2023-04-03T12:31:24;1.90;;;1.30;;
11422;SDS011;5768;51.476;7.210;2023-04-03T12:36:44;1.77;;;1.50;;
11422;SDS011;5768;51.476;7.210;2023-04-03T12:42:03;1.70;;;1.55;;
11422;SDS011;5768;51.476;7.210;2023-04-03T12:47:28;1.65;;;1.40;;
11422;SDS011;5768;51.476;7.210;2023-04-03T12:52:37;4.75;;;1.67;;
11422;SDS011;5768;51.476;7.210;2023-04-03T12:57:45;2.25;;;1.40;;
11422;SDS011;5768;51.476;7.210;2023-04-03T13:02:49;2.33;;;1.60;;
11422;SDS011;5768;51.476;7.210;2023-04-03T13:07:52;4.32;;;1.67;;
11422;SDS011;5768;51.476;7.210;2023-04-03T13:13:07;1.63;;;1.42;;
11422;SDS011;5768;51.476;7.210;2023-04-03T13:18:25;2.55;;;1.40;;
11422;SDS011;5768;51.476;7.210;2023-04-03T13:23:31;2.03;;;1.30;;
11422;SDS011;5768;51.476;7.210;2023-04-03T13:28:39;1.77;;;1.52;;
11422;SDS011;5768;51.476;7.210;2023-04-03T13:33:53;1.55;;;1.40;;
11422;SDS011;5768;51.476;7.210;2023-04-03T13:39:03;3.63;;;1.50;;
11422;SDS011;5768;51.476;7.210;2023-04-03T13:44:27;2.47;;;1.40;;
11422;SDS011;5768;51.476;7.210;2023-04-03T13:49:36;2.33;;;1.85;;
11422;SDS011;5768;51.476;7.210;2023-04-03T13:54:41;1.65;;;1.33;;
11422;SDS011;5768;51.476;7.210;2023-04-03T13:59:52;1.58;;;1.27;;
11422;SDS011;5768;51.476;7.210;2023-04-03T14:04:57;2.58;;;1.70;;
11422;SDS011;5768;51.476;7.210;2023-04-03T14:10:05;2.60;;;1.50;;
11422;SDS011;5768;51.476;7.210;2023-04-03T14:15:14;4.07;;;1.77;;
11422;SDS011;5768;51.476;7.210;2023-04-03T14:20:23;3.05;;;1.33;;
11422;SDS011;5768;51.476;7.210;2023-04-03T14:25:27;1.80;;;1.60;;
11422;SDS011;5768;51.476;7.210;2023-04-03T14:30:31;2.55;;;1.50;;
11422;SDS011;5768;51.476;7.210;2023-04-03T14:35:37;2.10;;;1.40;;
11422;SDS011;5768;51.476;7.210;2023-04-03T14:40:39;2.53;;;1.50;;
11422;SDS011;5768;51.476;7.210;2023-04-03T14:45:42;3.88;;;1.60;;
11422;SDS011;5768;51.476;7.210;2023-04-03T14:50:46;3.22;;;1.60;;
11422;SDS011;5768;51.476;7.210;2023-04-03T14:55:49;2.05;;;1.50;;
11422;SDS011;5768;51.476;7.210;2023-04-03T15:00:53;2.20;;;1.60;;
11422;SDS011;5768;51.476;7.210;2023-04-03T15:06:08;2.55;;;1.70;;
11422;SDS011;5768;51.476;7.210;2023-04-03T15:11:12;2.35;;;1.63;;
11422;SDS011;5768;51.476;7.210;2023-04-03T15:16:17;2.78;;;1.40;;
11422;SDS011;5768;51.476;7.210;2023-04-03T15:21:22;3.03;;;1.60;;
11422;SDS011;5768;51.476;7.210;2023-04-03T15:26:25;3.08;;;1.65;;
11422;SDS011;5768;51.476;7.210;2023-04-03T15:31:29;2.03;;;1.58;;
11422;SDS011;5768;51.476;7.210;2023-04-03T15:36:33;3.45;;;1.80;;
11422;SDS011;5768;51.476;7.210;2023-04-03T15:41:36;3.38;;;1.55;;
11422;SDS011;5768;51.476;7.210;2023-04-03T15:46:38;1.50;;;1.40;;
11422;SDS011;5768;51.476;7.210;2023-04-03T15:51:42;2.17;;;1.70;;
11422;SDS011;5768;51.476;7.210;2023-04-03T15:56:45;3.30;;;1.60;;
11422;SDS011;5768;51.476;7.210;2023-04-03T16:01:47;3.67;;;2.00;;
11422;SDS011;5768;51.476;7.210;2023-04-03T16:06:52;2.35;;;1.50;;
11422;SDS011;5768;51.476;7.210;2023-04-03T16:11:54;2.38;;;2.00;;
11422;SDS011;5768;51.476;7.210;2023-04-03T16:16:57;2.70;;;1.63;;
11422;SDS011;5768;51.476;7.210;2023-04-03T16:22:04;2.38;;;1.60;;
11422;SDS011;5768;51.476;7.210;2023-04-03T16:27:06;2.13;;;1.50;;
11422;SDS011;5768;51.476;7.210;2023-04-03T16:32:11;2.15;;;1.80;;
11422;SDS011;5768;51.476;7.210;2023-04-03T16:37:15;3.15;;;2.30;;
11422;SDS011;5768;51.476;7.210;2023-04-03T16:42:18;3.22;;;1.88;;
11422;SDS011;5768;51.476;7.210;2023-04-03T16:47:20;2.28;;;1.70;;
11422;SDS011;5768;51.476;7.210;2023-04-03T16:52:24;3.10;;;2.20;;
11422;SDS011;5768;51.476;7.210;2023-04-03T16:57:26;3.03;;;1.98;;
11422;SDS011;5768;51.476;7.210;2023-04-03T17:02:28;3.17;;;1.80;;
11422;SDS011;5768;51.476;7.210;2023-04-03T17:07:32;2.72;;;1.90;;
11422;SDS011;5768;51.476;7.210;2023-04-03T17:12:35;4.25;;;1.70;;
11422;SDS011;5768;51.476;7.210;2023-04-03T17:17:37;4.18;;;2.80;;
11422;SDS011;5768;51.476;7.210;2023-04-03T17:22:41;4.15;;;1.98;;
11422;SDS011;5768;51.476;7.210;2023-04-03T17:27:44;3.70;;;2.00;;
11422;SDS011;5768;51.476;7.210;2023-04-03T17:32:46;1.95;;;1.67;;
11422;SDS011;5768;51.476;7.210;2023-04-03T17:37:50;3.30;;;1.98;;
11422;SDS011;5768;51.476;7.210;2023-04-03T17:42:52;3.38;;;2.20;;
11422;SDS011;5768;51.476;7.210;2023-04-03T17:47:55;3.70;;;1.77;;
11422;SDS011;5768;51.476;7.210;2023-04-03T17:52:58;4.07;;;2.95;;
11422;SDS011;5768;51.476;7.210;2023-04-03T17:58:01;4.15;;;2.78;;
11422;SDS011;5768;51.476;7.210;2023-04-03T18:03:03;2.75;;;1.77;;
11422;SDS011;5768;51.476;7.210;2023-04-03T18:08:07;2.92;;;1.60;;
11422;SDS011;5768;51.476;7.210;2023-04-03T18:13:09;3.10;;;1.75;;
11422;SDS011;5768;51.476;7.210;2023-04-03T18:18:11;2.40;;;1.67;;
11422;SDS011;5768;51.476;7.210;2023-04-03T18:23:16;4.10;;;3.10;;
11422;SDS011;5768;51.476;7.210;2023-04-03T18:28:19;4.82;;;2.00;;
11422;SDS011;5768;51.476;7.210;2023-04-03T18:33:21;3.15;;;2.28;;
11422;SDS011;5768;51.476;7.210;2023-04-03T18:38:25;4.45;;;2.20;;
11422;SDS011;5768;51.476;7.210;2023-04-03T18:43:27;4.47;;;2.30;;
11422;SDS011;5768;51.476;7.210;2023-04-03T18:48:31;3.55;;;2.28;;
11422;SDS011;5768;51.476;7.210;2023-04-03T18:53:35;3.03;;;2.17;;
11422;SDS011;5768;51.476;7.210;2023-04-03T18:58:37;3.25;;;2.40;;
11422;SDS011;5768;51.476;7.210;2023-04-03T19:03:40;2.73;;;1.90;;
11422;SDS011;5768;51.476;7.210;2023-04-03T19:08:43;3.53;;;2.33;;
11422;SDS011;5768;51.476;7.210;2023-04-03T19:13:46;3.70;;;2.40;;
11422;SDS011;5768;51.476;7.210;2023-04-03T19:18:49;6.67;;;2.50;;
11422;SDS011;5768;51.476;7.210;2023-04-03T19:23:55;3.23;;;2.10;;
11422;SDS011;5768;51.476;7.210;2023-04-03T19:28:58;3.53;;;2.00;;
11422;SDS011;5768;51.476;7.210;2023-04-03T19:34:00;6.83;;;3.73;;
11422;SDS011;5768;51.476;7.210;2023-04-03T19:39:05;4.43;;;3.13;;
11422;SDS011;5768;51.476;7.210;2023-04-03T19:44:07;4.87;;;2.70;;
11422;SDS011;5768;51.476;7.210;2023-04-03T19:49:11;4.97;;;3.00;;
11422;SDS011;5768;51.476;7.210;2023-04-03T19:54:20;3.20;;;2.50;;
11422;SDS011;5768;51.476;7.210;2023-04-03T19:59:23;4.10;;;2.40;;
11422;SDS011;5768;51.476;7.210;2023-04-03T20:04:26;3.37;;;2.27;;
11422;SDS011;5768;51.476;7.210;2023-04-03T20:09:30;5.47;;;2.37;;
11422;SDS011;5768;51.476;7.210;2023-04-03T20:14:35;3.40;;;2.53;;
11422;SDS011;5768;51.476;7.210;2023-04-03T20:19:38;4.03;;;2.20;;
11422;SDS011;5768;51.476;7.210;2023-04-03T20:24:43;2.37;;;2.00;;
11422;SDS011;5768;51.476;7.210;2023-04-03T20:29:46;3.93;;;2.43;;
11422;SDS011;5768;51.476;7.210;2023-04-03T20:34:48;3.03;;;2.30;;
11422;SDS011;5768;51.476;7.210;2023-04-03T20:39:54;2.83;;;2.10;;
11422;SDS011;5768;51.476;7.210;2023-04-03T20:44:59;3.20;;;2.23;;
11422;SDS011;5768;51.476;7.210;2023-04-03T20:50:02;4.13;;;2.47;;
11422;SDS011;5768;51.476;7.210;2023-04-03T20:55:07;3.33;;;2.00;;
11422;SDS011;5768;51.476;7.210;2023-04-03T21:00:10;2.73;;;1.87;;
11422;SDS011;5768;51.476;7.210;2023-04-03T21:05:17;2.67;;;1.90;;
11422;SDS011;5768;51.476;7.210;2023-04-03T21:21:29;2.97;;;2.20;;
11422;SDS011;5768;51.476;7.210;2023-04-03T21:26:31;4.67;;;2.00;;
11422;SDS011;5768;51.476;7.210;2023-04-03T21:31:51;2.93;;;1.67;;
11422;SDS011;5768;51.476;7.210;2023-04-03T21:37:01;2.37;;;1.80;;
11422;SDS011;5768;51.476;7.210;2023-04-03T21:42:11;3.03;;;1.87;;
11422;SDS011;5768;51.476;7.210;2023-04-03T21:47:13;4.00;;;1.80;;
11422;SDS011;5768;51.476;7.210;2023-04-03T21:52:20;2.97;;;1.80;;
11422;SDS011;5768;51.476;7.210;2023-04-03T21:57:23;3.37;;;1.90;;
11422;SDS011;5768;51.476;7.210;2023-04-03T22:02:26;3.83;;;2.03;;
11422;SDS011;5768;51.476;7.210;2023-04-03T22:07:32;4.50;;;2.17;;
11422;SDS011;5768;51.476;7.210;2023-04-03T22:12:43;2.90;;;2.10;;
11422;SDS011;5768;51.476;7.210;2023-04-03T22:17:45;3.50;;;2.00;;
11422;SDS011;5768;51.476;7.210;2023-04-03T22:22:49;3.30;;;2.30;;
11422;SDS011;5768;51.476;7.210;2023-04-03T22:27:52;6.03;;;2.30;;
11422;SDS011;5768;51.476;7.210;2023-04-03T22:32:54;2.93;;;2.13;;
11422;SDS011;5768;51.476;7.210;2023-04-03T22:37:58;3.80;;;2.00;;
11422;SDS011;5768;51.476;7.210;2023-04-03T22:43:01;5.43;;;2.30;;
11422;SDS011;5768;51.476;7.210;2023-04-03T22:48:04;2.43;;;2.17;;
11422;SDS011;5768;51.476;7.210;2023-04-03T22:53:08;5.83;;;2.50;;
11422;SDS011;5768;51.476;7.210;2023-04-03T22:58:11;3.33;;;2.07;;
11422;SDS011;5768;51.476;7.210;2023-04-03T23:03:13;4.87;;;2.43;;
11422;SDS011;5768;51.476;7.210;2023-04-03T23:08:17;2.93;;;2.00;;
11422;SDS011;5768;51.476;7.210;2023-04-03T23:13:20;3.50;;;2.27;;
11422;SDS011;5768;51.476;7.210;2023-04-03T23:18:25;4.30;;;2.53;;
11422;SDS011;5768;51.476;7.210;2023-04-03T23:23:30;3.77;;;2.47;;
11422;SDS011;5768;51.476;7.210;2023-04-03T23:28:33;2.90;;;2.00;;
11422;SDS011;5768;51.476;7.210;2023-04-03T23:33:36;3.47;;;2.53;;
11422;SDS011;5768;51.476;7.210;2023-04-03T23:38:44;2.93;;;2.63;;
11422;SDS011;5768;51.476;7.210;2023-04-03T23:43:49;4.33;;;2.47;;
11422;SDS011;5768;51.476;7.210;2023-04-03T23:48:52;4.20;;;2.77;;
11422;SDS011;5768;51.476;7.210;2023-04-03T23:53:56;4.07;;;2.50;;
11422;SDS011;5768;51.476;7.210;2023-04-03T23:58:58;3.37;;;2.57;;
